Terminal Aerodrome Forecast
Issued by NWS Upton, NY

Home | Current Version | Previous Version | Text Only | Print | Product List | Glossary On
Versions: 1 2 3 4 5 6 7 8 9 10 11 12 13 14 15 16 17 18 19 20 21 22 23 24 25 26 27 28 29 30 31 32 33 34 35 36
000
FTUS41 KOKX 241431 AAA
TAFJFK
TAF AMD
KJFK 241431Z 2415/2518 28014G22KT P6SM SCT050
     FM242300 26012KT P6SM FEW050
     FM250600 31006KT P6SM SCT070
     FM251200 35003KT P6SM FEW080
     FM251700 22008KT P6SM FEW070=

USA.gov is the U.S. government's official web portal to all federal, state and local government web resources and services.